createdAt,value
2023-08-13T00:01:52.394Z,2.95
2023-08-13T00:04:18.982Z,2.82
2023-08-13T00:06:45.578Z,2.93
2023-08-13T00:09:11.954Z,2.51
2023-08-13T00:11:38.335Z,2.44
2023-08-13T00:14:04.778Z,2.61
2023-08-13T00:16:31.267Z,2.68
2023-08-13T00:18:57.672Z,2.60
2023-08-13T00:21:24.029Z,2.56
2023-08-13T00:23:50.404Z,2.60
2023-08-13T00:26:16.817Z,2.74
2023-08-13T00:28:43.284Z,2.70
2023-08-13T00:31:09.680Z,2.75
2023-08-13T00:33:36.172Z,2.92
2023-08-13T00:36:02.554Z,2.64
2023-08-13T00:38:29.129Z,2.71
2023-08-13T00:40:55.524Z,2.57
2023-08-13T00:43:21.963Z,2.61
2023-08-13T00:45:48.349Z,2.58
2023-08-13T00:48:14.777Z,2.49
2023-08-13T00:50:41.153Z,2.69
2023-08-13T00:53:07.525Z,2.77
2023-08-13T00:55:33.902Z,2.59
2023-08-13T00:58:00.293Z,2.65
2023-08-13T01:00:26.683Z,2.75
2023-08-13T01:02:53.142Z,2.48
2023-08-13T01:05:19.656Z,2.73
2023-08-13T01:07:46.056Z,2.76
2023-08-13T01:10:12.434Z,2.75
2023-08-13T01:12:38.861Z,2.68
2023-08-13T01:15:05.263Z,2.84
2023-08-13T01:17:31.664Z,2.75
2023-08-13T01:19:58.074Z,2.86
2023-08-13T01:22:24.509Z,2.97
2023-08-13T01:24:50.936Z,2.78
2023-08-13T01:27:17.316Z,2.81
2023-08-13T01:29:43.754Z,2.67
2023-08-13T01:32:10.153Z,2.54
2023-08-13T01:34:36.555Z,2.63
2023-08-13T01:37:02.978Z,2.80
2023-08-13T01:39:29.378Z,2.62
2023-08-13T01:41:55.964Z,2.73
2023-08-13T01:44:22.396Z,2.76
2023-08-13T01:46:48.856Z,2.64
2023-08-13T01:49:15.285Z,2.91
2023-08-13T01:51:41.655Z,2.80
2023-08-13T01:54:08.013Z,2.61
2023-08-13T01:56:34.378Z,2.72
2023-08-13T01:59:00.798Z,2.67
2023-08-13T02:01:27.214Z,2.66
2023-08-13T02:03:53.679Z,2.36
2023-08-13T02:06:20.057Z,2.59
2023-08-13T02:08:46.468Z,2.53
2023-08-13T02:11:12.855Z,2.84
2023-08-13T02:13:39.289Z,2.59
2023-08-13T02:16:05.731Z,2.61
2023-08-13T02:18:32.180Z,2.68
2023-08-13T02:20:58.616Z,2.47
2023-08-13T02:23:25.128Z,2.57
2023-08-13T02:25:51.586Z,2.65
2023-08-13T02:28:17.941Z,2.59
2023-08-13T02:30:44.367Z,2.72
2023-08-13T02:33:10.853Z,2.68
2023-08-13T02:35:37.270Z,2.59
2023-08-13T02:38:03.708Z,2.62
2023-08-13T02:40:30.078Z,2.69
2023-08-13T02:42:56.502Z,2.56
2023-08-13T02:45:22.986Z,2.56
2023-08-13T02:47:49.417Z,2.65
2023-08-13T02:50:15.938Z,2.55
2023-08-13T02:52:42.341Z,2.64
2023-08-13T02:55:08.786Z,2.38
2023-08-13T02:57:40.212Z,2.54
2023-08-13T03:00:10.090Z,2.37
2023-08-13T03:02:36.547Z,2.51
2023-08-13T03:05:02.962Z,2.43
2023-08-13T03:07:29.432Z,2.40
2023-08-13T03:09:55.824Z,2.34
2023-08-13T03:12:22.201Z,2.57
2023-08-13T03:14:48.600Z,2.42
2023-08-13T03:17:15.030Z,2.16
2023-08-13T03:19:41.380Z,2.41
2023-08-13T03:22:07.760Z,2.34
2023-08-13T03:24:34.211Z,2.24
2023-08-13T03:27:00.638Z,2.50
2023-08-13T03:29:27.069Z,2.50
2023-08-13T03:31:53.522Z,2.46
2023-08-13T03:34:19.934Z,2.62
2023-08-13T03:36:46.342Z,2.41
2023-08-13T03:39:12.753Z,2.61
2023-08-13T03:41:39.183Z,2.32
2023-08-13T03:44:05.568Z,2.39
2023-08-13T03:46:31.971Z,2.48
2023-08-13T03:48:58.365Z,2.36
2023-08-13T03:51:24.780Z,2.23
2023-08-13T03:53:51.159Z,2.40
2023-08-13T03:56:17.543Z,2.34
2023-08-13T03:58:43.978Z,2.10
2023-08-13T04:01:10.572Z,2.52
2023-08-13T04:03:37.196Z,2.45
2023-08-13T04:06:03.648Z,2.41
2023-08-13T04:08:30.072Z,2.39
2023-08-13T04:10:56.482Z,2.59
2023-08-13T04:13:22.908Z,2.49
2023-08-13T04:15:49.455Z,2.46
2023-08-13T04:18:15.876Z,2.38
2023-08-13T04:20:42.265Z,2.29
2023-08-13T04:23:08.684Z,2.41
2023-08-13T04:25:35.033Z,2.35
2023-08-13T04:28:01.459Z,2.11
2023-08-13T04:30:27.870Z,2.41
2023-08-13T04:32:54.274Z,2.36
2023-08-13T04:35:20.733Z,2.43
2023-08-13T04:37:47.154Z,2.25
2023-08-13T04:40:13.538Z,2.40
2023-08-13T04:42:40.017Z,2.22
2023-08-13T04:45:06.428Z,2.52
2023-08-13T04:47:32.827Z,2.33
2023-08-13T04:49:59.243Z,2.33
2023-08-13T04:52:25.598Z,2.43
2023-08-13T04:54:51.996Z,2.44
2023-08-13T04:57:18.408Z,2.33
2023-08-13T04:59:44.842Z,2.31
2023-08-13T05:02:11.251Z,2.39
2023-08-13T05:04:37.684Z,2.69
2023-08-13T05:07:04.093Z,2.52
2023-08-13T05:09:30.631Z,2.60
2023-08-13T05:11:57.049Z,2.43
2023-08-13T05:14:23.501Z,2.34
2023-08-13T05:16:49.907Z,2.49
2023-08-13T05:19:16.264Z,2.74
2023-08-13T05:21:42.652Z,2.37
2023-08-13T05:24:09.028Z,2.55
2023-08-13T05:26:35.406Z,2.21
2023-08-13T05:29:01.812Z,2.35
2023-08-13T05:31:28.226Z,2.59
2023-08-13T05:33:54.698Z,2.53
2023-08-13T05:36:21.075Z,2.64
2023-08-13T05:38:47.467Z,2.31
2023-08-13T05:41:13.868Z,2.19
2023-08-13T05:43:40.290Z,2.48
2023-08-13T05:46:06.709Z,2.65
2023-08-13T05:48:33.137Z,2.52
2023-08-13T05:50:59.518Z,2.67
2023-08-13T05:53:25.923Z,3.00
2023-08-13T05:55:52.318Z,2.70
2023-08-13T05:58:18.685Z,2.74
2023-08-13T06:00:45.159Z,2.72
2023-08-13T06:03:11.707Z,2.73
2023-08-13T06:05:38.175Z,2.72
2023-08-13T06:08:04.539Z,2.47
2023-08-13T06:10:30.914Z,2.40
2023-08-13T06:12:57.285Z,2.35
2023-08-13T06:15:23.665Z,2.52
2023-08-13T06:17:50.172Z,2.59
2023-08-13T06:20:16.548Z,2.43
2023-08-13T06:22:43.050Z,2.20
2023-08-13T06:25:09.493Z,2.57
2023-08-13T06:27:35.850Z,2.89
2023-08-13T06:30:10.397Z,2.57
2023-08-13T06:32:37.815Z,2.42
2023-08-13T06:35:04.295Z,2.64
2023-08-13T06:37:30.656Z,2.56
2023-08-13T06:39:57.062Z,2.32
2023-08-13T06:42:23.412Z,2.55
2023-08-13T06:44:49.765Z,2.46
2023-08-13T06:47:16.150Z,2.67
2023-08-13T06:49:42.538Z,2.62
2023-08-13T06:52:08.995Z,2.74
2023-08-13T06:54:35.389Z,2.93
2023-08-13T06:57:03.002Z,2.52
2023-08-13T06:59:29.435Z,2.66
2023-08-13T07:01:55.862Z,2.69
2023-08-13T07:04:22.318Z,2.65
2023-08-13T07:06:48.766Z,2.47
2023-08-13T07:09:15.171Z,2.48
2023-08-13T07:11:41.591Z,2.57
2023-08-13T07:14:07.970Z,2.58
2023-08-13T07:16:34.414Z,2.51
2023-08-13T07:19:00.867Z,2.29
2023-08-13T07:21:27.312Z,2.38
2023-08-13T07:23:53.680Z,2.50
2023-08-13T07:26:20.106Z,2.56
2023-08-13T07:28:46.502Z,2.73
2023-08-13T07:31:12.910Z,2.64
2023-08-13T07:33:39.300Z,2.46
2023-08-13T07:36:05.692Z,2.51
2023-08-13T07:38:32.130Z,2.60
2023-08-13T07:40:58.511Z,2.30
2023-08-13T07:43:24.977Z,2.38
2023-08-13T07:45:51.394Z,2.35
2023-08-13T07:48:17.858Z,2.25
2023-08-13T07:50:44.230Z,2.39
2023-08-13T07:53:10.798Z,2.55
2023-08-13T07:55:37.276Z,2.47
2023-08-13T07:58:03.753Z,2.13
2023-08-13T08:00:30.196Z,2.64
2023-08-13T08:02:56.647Z,2.19
2023-08-13T08:05:23.052Z,2.54
2023-08-13T08:07:49.485Z,2.19
2023-08-13T08:10:15.926Z,1.90
2023-08-13T08:12:42.392Z,2.37
2023-08-13T08:15:08.811Z,2.43
2023-08-13T08:17:35.309Z,2.58
2023-08-13T08:20:01.805Z,2.55
2023-08-13T08:22:28.210Z,2.27
2023-08-13T08:24:54.584Z,2.57
2023-08-13T08:27:21.171Z,2.75
2023-08-13T08:29:47.636Z,2.59
2023-08-13T08:32:14.292Z,2.39
2023-08-13T08:34:40.946Z,2.42
2023-08-13T08:37:07.422Z,2.16
2023-08-13T08:39:33.896Z,2.32
2023-08-13T08:42:00.316Z,2.28
2023-08-13T08:44:26.768Z,2.15
2023-08-13T08:46:53.271Z,2.18
2023-08-13T08:49:19.752Z,2.31
2023-08-13T08:51:46.189Z,2.29
2023-08-13T08:54:12.599Z,2.45
2023-08-13T08:56:39.041Z,2.42
2023-08-13T08:59:05.479Z,2.18
2023-08-13T09:01:31.964Z,2.34
2023-08-13T09:03:58.449Z,2.37
2023-08-13T09:06:24.922Z,2.32
2023-08-13T09:08:51.362Z,2.22
2023-08-13T09:11:17.791Z,2.72
2023-08-13T09:13:44.189Z,4.55
2023-08-13T09:16:10.613Z,4.94
2023-08-13T09:18:37.073Z,4.24
2023-08-13T09:21:03.544Z,2.68
2023-08-13T09:23:30.032Z,2.56
2023-08-13T09:25:56.457Z,2.68
2023-08-13T09:28:22.860Z,3.29
2023-08-13T09:30:49.257Z,4.22
2023-08-13T09:33:15.678Z,3.72
2023-08-13T09:35:42.128Z,3.34
2023-08-13T09:38:08.568Z,3.06
2023-08-13T09:40:34.971Z,3.34
2023-08-13T09:43:01.453Z,3.08
2023-08-13T09:45:27.865Z,3.33
2023-08-13T09:47:54.324Z,3.19
2023-08-13T09:50:20.711Z,3.06
2023-08-13T09:52:47.126Z,2.57
2023-08-13T09:55:13.532Z,2.99
2023-08-13T09:57:40.085Z,3.15
2023-08-13T10:00:06.607Z,2.59
2023-08-13T10:02:33.129Z,2.86
2023-08-13T10:04:59.674Z,3.29
2023-08-13T10:07:26.051Z,3.04
2023-08-13T10:10:06.339Z,2.97
2023-08-13T10:12:34.544Z,2.09
2023-08-13T10:15:00.956Z,2.57
2023-08-13T10:17:27.407Z,2.29
2023-08-13T10:19:53.801Z,1.79
2023-08-13T10:22:20.338Z,2.34
2023-08-13T10:24:46.906Z,2.29
2023-08-13T10:27:13.321Z,2.21
2023-08-13T10:29:39.824Z,1.92
2023-08-13T10:32:06.310Z,2.04
2023-08-13T10:34:32.749Z,1.89
2023-08-13T10:36:59.150Z,2.03
2023-08-13T10:39:25.550Z,2.13
2023-08-13T10:41:51.904Z,2.28
2023-08-13T10:44:18.258Z,1.99
2023-08-13T10:46:44.673Z,1.97
2023-08-13T10:49:11.072Z,1.98
2023-08-13T10:51:37.418Z,2.11
2023-08-13T10:54:03.797Z,1.93
2023-08-13T10:56:30.168Z,2.55
2023-08-13T10:58:56.544Z,2.21
2023-08-13T11:01:22.899Z,2.16
2023-08-13T11:03:49.485Z,2.15
2023-08-13T11:06:16.025Z,1.83
2023-08-13T11:08:47.946Z,2.12
2023-08-13T11:11:14.878Z,2.49
2023-08-13T11:13:41.359Z,2.19
2023-08-13T11:16:07.888Z,1.99
2023-08-13T11:18:34.363Z,2.00
2023-08-13T11:21:00.762Z,2.16
2023-08-13T11:23:27.206Z,2.25
2023-08-13T11:25:53.629Z,2.08
2023-08-13T11:28:20.090Z,1.93
2023-08-13T11:30:46.457Z,1.91
2023-08-13T11:33:12.901Z,2.16
2023-08-13T11:35:39.371Z,1.88
2023-08-13T11:38:05.821Z,2.06
2023-08-13T11:40:32.209Z,2.18
2023-08-13T11:42:58.618Z,2.17
2023-08-13T11:45:25.106Z,2.22
2023-08-13T11:47:51.593Z,1.98
2023-08-13T11:50:18.089Z,1.92
2023-08-13T11:52:44.495Z,2.11
2023-08-13T11:55:10.865Z,2.14
2023-08-13T11:57:37.235Z,2.22
2023-08-13T12:00:03.630Z,2.05
2023-08-13T12:02:30.108Z,2.22
2023-08-13T12:04:56.548Z,2.34
2023-08-13T12:07:22.980Z,2.13
2023-08-13T12:09:49.352Z,2.24
2023-08-13T12:12:16.044Z,2.33
2023-08-13T12:14:42.613Z,2.37
2023-08-13T12:17:08.977Z,2.12
2023-08-13T12:19:35.374Z,2.03
2023-08-13T12:22:01.821Z,2.04
2023-08-13T12:24:28.224Z,2.06
2023-08-13T12:26:54.640Z,2.01
2023-08-13T12:29:21.103Z,2.12
2023-08-13T12:31:47.520Z,2.12
2023-08-13T12:34:13.931Z,2.05
2023-08-13T12:36:40.377Z,1.83
2023-08-13T12:39:06.797Z,2.19
2023-08-13T12:41:39.773Z,1.82
2023-08-13T12:44:06.753Z,2.03
2023-08-13T12:46:33.228Z,1.78
2023-08-13T12:48:59.703Z,1.68
2023-08-13T12:51:26.144Z,1.59
2023-08-13T12:53:52.560Z,1.78
2023-08-13T12:56:19.029Z,1.85
2023-08-13T12:58:45.460Z,2.03
2023-08-13T13:01:12.100Z,1.90
2023-08-13T13:03:38.570Z,1.83
2023-08-13T13:06:05.005Z,1.63
2023-08-13T13:08:31.464Z,1.87
2023-08-13T13:10:57.829Z,1.90
2023-08-13T13:13:24.259Z,1.84
2023-08-13T13:15:50.730Z,2.00
2023-08-13T13:18:17.224Z,1.94
2023-08-13T13:20:43.611Z,2.10
2023-08-13T13:23:10.003Z,2.31
2023-08-13T13:25:36.366Z,2.01
2023-08-13T13:28:02.836Z,1.94
2023-08-13T13:30:29.318Z,1.89
2023-08-13T13:32:55.746Z,1.81
2023-08-13T13:35:22.167Z,2.23
2023-08-13T13:37:48.585Z,2.14
2023-08-13T13:40:15.040Z,1.77
2023-08-13T13:42:41.428Z,1.91
2023-08-13T13:45:07.913Z,1.90
2023-08-13T13:47:34.313Z,1.74
2023-08-13T13:50:00.765Z,1.68
2023-08-13T13:52:27.209Z,1.74
2023-08-13T13:54:53.648Z,1.73
2023-08-13T13:57:20.193Z,1.79
2023-08-13T13:59:46.708Z,1.76
2023-08-13T14:02:13.161Z,1.99
2023-08-13T14:04:39.602Z,1.53
2023-08-13T14:07:06.039Z,1.82
2023-08-13T14:09:32.454Z,1.82
2023-08-13T14:11:58.805Z,1.92
2023-08-13T14:14:25.151Z,1.79
2023-08-13T14:16:51.518Z,1.91
2023-08-13T14:19:17.940Z,1.79
2023-08-13T14:21:44.330Z,1.74
2023-08-13T14:24:10.737Z,1.78
2023-08-13T14:26:37.124Z,1.78
2023-08-13T14:29:03.488Z,1.75
2023-08-13T14:31:30.011Z,1.57
2023-08-13T14:33:56.383Z,1.41
2023-08-13T14:36:22.760Z,1.62
2023-08-13T14:38:49.193Z,1.52
2023-08-13T14:41:15.634Z,1.47
2023-08-13T14:43:42.080Z,1.54
2023-08-13T14:46:08.551Z,1.55
2023-08-13T14:48:34.988Z,1.66
2023-08-13T14:51:01.390Z,1.69
2023-08-13T14:53:27.835Z,1.57
2023-08-13T14:55:54.246Z,1.75
2023-08-13T14:58:20.700Z,1.49
2023-08-13T15:00:47.137Z,1.70
2023-08-13T15:03:13.720Z,1.61
2023-08-13T15:05:40.251Z,1.47
2023-08-13T15:08:06.698Z,1.63
2023-08-13T15:10:33.135Z,1.59
2023-08-13T15:12:59.565Z,1.55
2023-08-13T15:15:26.051Z,1.49
2023-08-13T15:17:52.573Z,1.68
2023-08-13T15:20:19.059Z,1.57
2023-08-13T15:22:45.479Z,1.55
2023-08-13T15:25:11.935Z,1.79
2023-08-13T15:27:38.386Z,1.80
2023-08-13T15:30:04.841Z,1.57
2023-08-13T15:32:31.251Z,1.61
2023-08-13T15:34:57.708Z,1.68
2023-08-13T15:37:24.152Z,1.76
2023-08-13T15:39:50.573Z,1.97
2023-08-13T15:42:17.275Z,1.65
2023-08-13T15:44:43.910Z,1.75
2023-08-13T15:47:10.324Z,1.70
2023-08-13T15:49:36.698Z,1.87
2023-08-13T15:52:03.080Z,2.05
2023-08-13T15:54:29.465Z,1.98
2023-08-13T15:56:55.827Z,1.77
2023-08-13T15:59:22.163Z,1.71
2023-08-13T16:01:48.588Z,1.61
2023-08-13T16:04:15.097Z,1.78
2023-08-13T16:06:41.598Z,1.89
2023-08-13T16:09:07.987Z,2.01
2023-08-13T16:11:34.447Z,2.08
2023-08-13T16:14:00.891Z,2.06
2023-08-13T16:16:27.335Z,1.88
2023-08-13T16:18:53.782Z,1.95
2023-08-13T16:21:20.209Z,1.91
2023-08-13T16:23:46.767Z,1.94
2023-08-13T16:26:14.083Z,1.97
2023-08-13T16:28:40.579Z,2.14
2023-08-13T16:31:07.086Z,1.79
2023-08-13T16:33:33.556Z,1.90
2023-08-13T16:35:59.956Z,1.81
2023-08-13T16:38:26.360Z,1.91
2023-08-13T16:40:52.736Z,2.06
2023-08-13T16:43:19.121Z,1.97
2023-08-13T16:45:45.499Z,2.03
2023-08-13T16:48:14.680Z,2.20
2023-08-13T16:50:43.024Z,1.94
2023-08-13T16:53:09.443Z,2.01
2023-08-13T16:55:35.822Z,1.96
2023-08-13T16:58:02.213Z,1.96
2023-08-13T17:00:28.660Z,2.09
2023-08-13T17:02:55.190Z,2.09
2023-08-13T17:05:21.662Z,2.10
2023-08-13T17:07:48.058Z,2.14
2023-08-13T17:10:14.486Z,1.86
2023-08-13T17:12:40.898Z,2.17
2023-08-13T17:15:17.534Z,2.05
2023-08-13T17:17:48.446Z,2.08
2023-08-13T17:20:14.830Z,2.27
2023-08-13T17:22:41.231Z,2.15
2023-08-13T17:25:07.622Z,2.07
2023-08-13T17:27:34.022Z,2.11
2023-08-13T17:30:00.436Z,1.92
2023-08-13T17:32:26.821Z,1.98
2023-08-13T17:34:53.213Z,1.98
2023-08-13T17:37:19.847Z,2.32
2023-08-13T17:39:46.434Z,2.38
2023-08-13T17:42:12.823Z,2.33
2023-08-13T17:44:39.207Z,2.14
2023-08-13T17:47:05.589Z,1.97
2023-08-13T17:49:31.952Z,2.43
2023-08-13T17:51:58.355Z,2.17
2023-08-13T17:54:24.730Z,2.32
2023-08-13T17:56:51.148Z,2.02
2023-08-13T17:59:17.534Z,2.02
2023-08-13T18:01:43.956Z,2.24
2023-08-13T18:04:10.335Z,2.08
2023-08-13T18:06:38.123Z,1.99
2023-08-13T18:09:06.196Z,2.18
2023-08-13T18:11:32.705Z,2.49
2023-08-13T18:13:59.105Z,2.46
2023-08-13T18:16:25.538Z,2.35
2023-08-13T18:18:51.917Z,2.34
2023-08-13T18:21:18.278Z,2.18
2023-08-13T18:23:44.680Z,2.25
2023-08-13T18:26:11.124Z,2.11
2023-08-13T18:28:37.482Z,2.21
2023-08-13T18:31:03.905Z,2.54
2023-08-13T18:33:30.392Z,2.44
2023-08-13T18:35:56.798Z,2.39
2023-08-13T18:38:23.174Z,2.28
2023-08-13T18:40:49.559Z,2.26
2023-08-13T18:43:15.992Z,2.27
2023-08-13T18:45:42.397Z,2.28
2023-08-13T18:48:08.838Z,2.40
2023-08-13T18:50:35.251Z,2.39
2023-08-13T18:53:01.782Z,2.55
2023-08-13T18:55:28.168Z,2.74
2023-08-13T18:57:54.565Z,2.41
2023-08-13T19:00:20.980Z,2.65
2023-08-13T19:02:47.415Z,2.98
2023-08-13T19:05:13.953Z,2.63
2023-08-13T19:07:40.329Z,2.70
2023-08-13T19:10:06.674Z,2.72
2023-08-13T19:12:33.031Z,2.95
2023-08-13T19:14:59.434Z,2.44
2023-08-13T19:17:25.912Z,2.67
2023-08-13T19:19:52.397Z,2.91
2023-08-13T19:22:19.001Z,2.79
2023-08-13T19:24:45.526Z,2.70
2023-08-13T19:27:11.934Z,2.58
2023-08-13T19:29:38.329Z,2.71
2023-08-13T19:32:04.696Z,2.76
2023-08-13T19:34:31.055Z,2.96
2023-08-13T19:36:57.414Z,3.21
2023-08-13T19:39:23.767Z,3.21
2023-08-13T19:41:50.184Z,3.04
2023-08-13T19:44:28.094Z,3.23
2023-08-13T19:47:03.019Z,3.28
2023-08-13T19:49:29.372Z,3.20
2023-08-13T19:51:55.742Z,3.14
2023-08-13T19:54:22.126Z,3.08
2023-08-13T19:56:48.498Z,2.80
2023-08-13T19:59:14.895Z,2.96
2023-08-13T20:01:41.345Z,2.82
2023-08-13T20:04:07.726Z,2.81
2023-08-13T20:06:34.284Z,3.15
2023-08-13T20:09:00.662Z,3.50
2023-08-13T20:11:27.023Z,3.42
2023-08-13T20:13:53.468Z,3.27
2023-08-13T20:16:19.856Z,3.95
2023-08-13T20:18:46.278Z,4.51
2023-08-13T20:21:12.638Z,4.76
2023-08-13T20:23:38.983Z,4.39
2023-08-13T20:26:05.333Z,4.17
2023-08-13T20:28:31.718Z,4.24
2023-08-13T20:30:58.109Z,3.81
2023-08-13T20:33:24.458Z,3.95
2023-08-13T20:35:50.849Z,4.19
2023-08-13T20:38:17.344Z,3.95
2023-08-13T20:40:43.715Z,3.73
2023-08-13T20:43:10.151Z,3.82
2023-08-13T20:45:36.672Z,3.97
2023-08-13T20:48:03.114Z,3.60
2023-08-13T20:50:29.560Z,3.67
2023-08-13T20:52:55.987Z,3.63
2023-08-13T20:55:22.376Z,3.70
2023-08-13T20:57:48.781Z,3.59
2023-08-13T21:00:15.318Z,3.50
2023-08-13T21:02:41.846Z,3.35
2023-08-13T21:05:08.334Z,3.31
2023-08-13T21:07:34.753Z,3.22
2023-08-13T21:10:01.187Z,3.22
2023-08-13T21:12:27.598Z,3.42
2023-08-13T21:14:53.982Z,3.38
2023-08-13T21:17:20.344Z,3.38
2023-08-13T21:19:46.760Z,3.46
2023-08-13T21:22:13.142Z,3.32
2023-08-13T21:24:39.602Z,3.33
2023-08-13T21:27:05.964Z,3.59
2023-08-13T21:29:32.306Z,3.47
2023-08-13T21:31:58.701Z,3.39
2023-08-13T21:34:25.063Z,3.41
2023-08-13T21:36:51.439Z,3.76
2023-08-13T21:39:18.134Z,4.14
2023-08-13T21:41:44.526Z,3.60
2023-08-13T21:44:10.884Z,3.84
2023-08-13T21:46:37.334Z,3.65
2023-08-13T21:49:03.818Z,3.81
2023-08-13T21:51:30.249Z,4.08
2023-08-13T21:53:56.760Z,3.80
2023-08-13T21:56:23.138Z,3.68
2023-08-13T21:58:49.545Z,3.70
2023-08-13T22:01:15.905Z,3.66
2023-08-13T22:03:42.441Z,3.60
2023-08-13T22:06:08.925Z,3.62
2023-08-13T22:08:35.335Z,3.71
2023-08-13T22:11:01.747Z,3.83
2023-08-13T22:13:28.132Z,3.91
2023-08-13T22:15:54.526Z,3.69
2023-08-13T22:18:20.966Z,3.75
2023-08-13T22:20:47.332Z,3.93
2023-08-13T22:23:14.854Z,4.25
2023-08-13T22:25:41.211Z,4.24
2023-08-13T22:28:07.604Z,3.50
2023-08-13T22:30:34.004Z,3.71
2023-08-13T22:33:00.479Z,3.54
2023-08-13T22:35:26.926Z,3.48
2023-08-13T22:37:53.308Z,3.61
2023-08-13T22:40:19.666Z,3.54
2023-08-13T22:42:46.076Z,3.85
2023-08-13T22:45:12.453Z,3.75
2023-08-13T22:47:38.871Z,4.22
2023-08-13T22:50:05.358Z,3.99
2023-08-13T22:52:31.793Z,3.75
2023-08-13T22:54:58.213Z,3.49
2023-08-13T22:57:24.659Z,3.72
2023-08-13T22:59:51.069Z,3.82
2023-08-13T23:02:17.698Z,3.71
2023-08-13T23:04:44.238Z,3.66
2023-08-13T23:07:10.673Z,3.54
2023-08-13T23:09:37.062Z,3.45
2023-08-13T23:12:03.461Z,3.60
2023-08-13T23:14:29.870Z,3.54
2023-08-13T23:16:56.257Z,3.41
2023-08-13T23:19:23.630Z,3.63
2023-08-13T23:21:49.963Z,3.73
2023-08-13T23:24:16.319Z,3.83
2023-08-13T23:26:42.709Z,3.63
2023-08-13T23:29:09.089Z,3.69
2023-08-13T23:31:35.489Z,3.68
2023-08-13T23:34:01.922Z,3.86
2023-08-13T23:36:28.286Z,3.99
2023-08-13T23:38:54.706Z,3.83
2023-08-13T23:41:21.067Z,4.07
2023-08-13T23:43:47.442Z,4.05
2023-08-13T23:46:13.836Z,3.90
2023-08-13T23:48:40.226Z,3.93
2023-08-13T23:51:06.625Z,3.82
2023-08-13T23:53:33.062Z,3.73
2023-08-13T23:55:59.501Z,4.05
2023-08-13T23:58:25.921Z,3.93
